Terminal Aerodrome Forecast
Issued by NWS

Home | Current Version | Previous Version | Text Only | Print | Product List | Glossary On
Versions: 1 2 3 4 5 6 7 8 9 10 11 12 13 14 15 16 17
086
FTUS44 KLZK 262340
TAFPBF
TAF
KPBF 262340Z 2700/2724 17006KT P6SM SCT250
     FM270600 16006KT P6SM SCT100 BKN250
     FM270900 18009KT P6SM VCTS BKN050CB OVC100 PROB30 2709/2712 5SM
      -TSRA BR BKN035CB
     FM271200 20012KT P6SM VCSH OVC015
     FM271900 23012G22KT P6SM VCTS BKN035CB=

USA.gov is the U.S. government's official web portal to all federal, state and local government web resources and services.